createdAt,value
2022-11-04T00:00:05.962Z,98671.4
2022-11-04T00:05:42.070Z,98671.4
2022-11-04T00:11:16.971Z,98661.9
2022-11-04T00:16:53.017Z,98662.9
2022-11-04T00:22:27.964Z,98662.7
2022-11-04T00:28:02.832Z,98653.1
2022-11-04T00:33:37.885Z,98640.9
2022-11-04T00:39:13.019Z,98641.5
2022-11-04T00:44:47.784Z,98631.7
2022-11-04T00:50:22.903Z,98630.8
2022-11-04T00:55:57.541Z,98628
2022-11-04T01:01:34.382Z,98613.8
2022-11-04T01:07:10.787Z,98606.7
2022-11-04T01:12:46.235Z,98591.4
2022-11-04T01:18:26.839Z,98584.8
2022-11-04T01:24:01.707Z,98586.7
2022-11-04T01:29:36.429Z,98586.5
2022-11-04T01:35:12.187Z,98581
2022-11-04T01:40:47.321Z,98578.9
2022-11-04T01:46:46.223Z,98584.5
2022-11-04T01:52:20.936Z,98582.6
2022-11-04T01:57:55.846Z,98575.9
2022-11-04T02:03:30.612Z,98570
2022-11-04T02:09:06.728Z,98577.7
2022-11-04T02:14:42.812Z,98570.9
2022-11-04T02:20:17.886Z,98559.2
2022-11-04T02:25:52.836Z,98570.2
2022-11-04T02:31:27.531Z,98574.4
2022-11-04T02:37:03.478Z,98570.5
2022-11-04T02:42:38.385Z,98559.6
2022-11-04T02:48:35.062Z,98551.7
2022-11-04T02:54:09.111Z,98548.7
2022-11-04T02:59:44.731Z,98555.9
2022-11-04T03:05:19.890Z,98548.7
2022-11-04T03:10:54.878Z,98545.8
2022-11-04T03:16:30.066Z,98544.4
2022-11-04T03:22:05.830Z,98542.7
2022-11-04T03:27:41.306Z,98543.5
2022-11-04T03:33:16.339Z,98545.3
2022-11-04T03:38:51.378Z,98551
2022-11-04T03:44:26.623Z,98538
2022-11-04T03:50:01.649Z,98527.2
2022-11-04T03:55:36.419Z,98515.4
2022-11-04T04:01:11.583Z,98513.8
2022-11-04T04:06:47.808Z,98515.9
2022-11-04T04:12:22.722Z,98514.2
2022-11-04T04:17:57.633Z,98517.1
2022-11-04T04:23:33.528Z,98508
2022-11-04T04:29:08.299Z,98506.4
2022-11-04T04:34:43.301Z,98513.6
2022-11-04T04:40:25.686Z,98506.5
2022-11-04T04:46:22.702Z,98522.7
2022-11-04T04:51:55.471Z,98525.3
2022-11-04T04:57:30.364Z,98545.2
2022-11-04T05:03:05.474Z,98546.8
2022-11-04T05:08:42.687Z,98542.9
2022-11-04T05:14:17.467Z,98546.4
2022-11-04T05:19:52.710Z,98528.1
2022-11-04T05:25:28.532Z,98506.4
2022-11-04T05:31:03.794Z,98506.5
2022-11-04T05:36:39.860Z,98504.3
2022-11-04T05:42:14.847Z,98537.7
2022-11-04T05:48:11.736Z,98538.1
2022-11-04T05:53:44.481Z,98520.5
2022-11-04T05:59:19.580Z,98521.3
2022-11-04T06:04:54.488Z,98525.2
2022-11-04T06:10:30.595Z,98531.6
2022-11-04T06:16:12.099Z,98545.6
2022-11-04T06:21:47.074Z,98542.8
2022-11-04T06:27:21.899Z,98563.7
2022-11-04T06:32:57.920Z,98527.1
2022-11-04T06:38:34.027Z,98521.8
2022-11-04T06:44:09.982Z,98540.8
2022-11-04T06:49:45.011Z,98539.3
2022-11-04T06:55:21.025Z,98547.3
2022-11-04T07:00:56.845Z,98566.4
2022-11-04T07:06:33.490Z,98573.7
2022-11-04T07:12:13.045Z,98563.3
2022-11-04T07:18:10.559Z,98592.7
2022-11-04T07:23:48.462Z,98625.4
2022-11-04T07:29:23.320Z,98648.8
2022-11-04T07:34:58.334Z,98663.4
2022-11-04T07:40:33.105Z,98672.2
2022-11-04T07:46:29.535Z,98697.7
2022-11-04T07:52:03.670Z,98733.3
2022-11-04T07:57:42.910Z,98755.3
2022-11-04T08:03:18.213Z,98736.9
2022-11-04T08:10:40.265Z,98749.5
2022-11-04T08:16:16.406Z,98745.6
2022-11-04T08:21:51.788Z,98755.5
2022-11-04T08:27:28.017Z,98754.3
2022-11-04T08:33:03.111Z,98752.8
2022-11-04T08:38:38.163Z,98761.5
2022-11-04T08:44:13.482Z,98755.8
2022-11-04T08:49:50.116Z,98761
2022-11-04T08:55:26.143Z,98752.1
2022-11-04T09:01:01.800Z,98763.7
2022-11-04T09:06:39.752Z,98735.8
2022-11-04T09:12:18.935Z,98759.5
2022-11-04T09:17:54.868Z,98752.7
2022-11-04T09:23:29.985Z,98772.2
2022-11-04T09:29:04.849Z,98798.5
2022-11-04T09:34:40.971Z,98785.5
2022-11-04T09:40:17.716Z,98784.7
2022-11-04T09:46:14.727Z,98783.9
2022-11-04T09:51:56.768Z,98790.3
2022-11-04T09:57:32.727Z,98767.2
2022-11-04T10:03:10.656Z,98768.7
2022-11-04T10:08:48.383Z,98771.2
2022-11-04T10:14:23.994Z,98763
2022-11-04T10:19:59.312Z,98762.4
2022-11-04T10:25:35.450Z,98761.7
2022-11-04T10:31:11.534Z,98756.9
2022-11-04T10:36:46.398Z,98763.7
2022-11-04T10:42:22.770Z,98775.5
2022-11-04T10:48:20.643Z,98775.1
2022-11-04T10:53:54.309Z,98756.4
2022-11-04T10:59:29.533Z,98761.4
2022-11-04T11:05:05.606Z,98756.8
2022-11-04T11:10:42.253Z,98774.3
2022-11-04T11:16:17.216Z,98781.2
2022-11-04T11:21:52.303Z,98759.4
2022-11-04T11:27:27.432Z,98762.5
2022-11-04T11:33:02.983Z,98770.8
2022-11-04T11:38:38.620Z,98771.7
2022-11-04T11:44:13.520Z,98759.6
2022-11-04T11:49:48.334Z,98769.1
2022-11-04T11:55:23.486Z,98761.8
2022-11-04T12:01:21.851Z,98767.6
2022-11-04T12:14:58.310Z,98823.8
2022-11-04T12:20:32.699Z,98801
2022-11-04T12:26:07.869Z,98818.6
2022-11-04T12:31:42.784Z,98822.6
2022-11-04T12:37:17.825Z,98821.4
2022-11-04T12:42:53.355Z,98822.6
2022-11-04T12:49:04.496Z,98804.3
2022-11-04T12:54:40.346Z,98822.7
2022-11-04T13:00:15.669Z,98819
2022-11-04T13:05:50.905Z,98825.3
2022-11-04T13:11:26.591Z,98835.2
2022-11-04T13:17:02.894Z,98845.2
2022-11-04T13:22:44.499Z,98846
2022-11-04T13:28:41.153Z,98843.6
2022-11-04T13:34:27.448Z,98835.8
2022-11-04T13:40:02.435Z,98839.7
2022-11-04T13:45:40.014Z,98839.7
2022-11-04T13:51:16.174Z,98841.7
2022-11-04T13:56:51.085Z,98846.6
2022-11-04T14:02:29.132Z,98846.3
2022-11-04T14:08:04.699Z,98857.9
2022-11-04T14:13:48.055Z,98858.2
2022-11-04T14:19:27.266Z,98856.1
2022-11-04T14:25:05.108Z,98862.2
2022-11-04T14:30:45.310Z,98878.7
2022-11-04T14:36:20.760Z,98893.2
2022-11-04T14:41:55.681Z,98904.5
2022-11-04T14:47:53.194Z,98900.1
2022-11-04T14:53:25.728Z,98903.5
2022-11-04T14:59:00.867Z,98907.2
2022-11-04T15:04:36.133Z,98919.7
2022-11-04T15:10:12.196Z,98921.2
2022-11-04T15:15:47.303Z,98932.6
2022-11-04T15:21:23.115Z,98932.6
2022-11-04T15:26:57.961Z,98939.1
2022-11-04T15:32:33.101Z,98945.2
2022-11-04T15:38:07.903Z,98945.9
2022-11-04T15:43:43.026Z,98952.8
2022-11-04T15:49:18.368Z,98956
2022-11-04T15:54:53.491Z,98964.4
2022-11-04T16:00:28.850Z,98974.5
2022-11-04T16:06:03.900Z,98977.2
2022-11-04T16:11:42.669Z,98982.6
2022-11-04T16:17:22.945Z,98990.2
2022-11-04T16:22:57.940Z,99000
2022-11-04T16:28:40.882Z,99009.8
2022-11-04T16:34:26.395Z,99017.9
2022-11-04T16:40:01.331Z,99026.9
2022-11-04T16:46:04.828Z,99039.9
2022-11-04T16:51:40.713Z,99046.4
2022-11-04T16:57:16.215Z,99056
2022-11-04T17:02:53.885Z,99059.5
2022-11-04T17:08:29.080Z,99059
2022-11-04T17:14:04.473Z,99071.1
2022-11-04T17:19:39.849Z,99078.6
2022-11-04T17:25:16.339Z,99082.8
2022-11-04T17:30:56.991Z,99090.6
2022-11-04T17:36:31.785Z,99096.7
2022-11-04T17:42:06.944Z,99106
2022-11-04T17:48:03.456Z,99112
2022-11-04T17:53:36.972Z,99124.3
2022-11-04T17:59:12.592Z,99124.7
2022-11-04T18:04:57.605Z,99125.4
2022-11-04T18:10:33.500Z,99123.3
2022-11-04T18:16:08.807Z,99134.1
2022-11-04T18:21:56.028Z,99155.8
2022-11-04T18:27:35.011Z,99162
2022-11-04T18:33:14.185Z,99169.2
2022-11-04T18:39:09.837Z,99177.3
2022-11-04T18:44:48.962Z,99186.1
2022-11-04T18:50:25.230Z,99189.7
2022-11-04T18:56:04.214Z,99198.7
2022-11-04T19:01:53.709Z,99200.4
2022-11-04T19:07:30.064Z,99213.2
2022-11-04T19:13:27.839Z,99213.7
2022-11-04T19:19:05.515Z,99214.6
2022-11-04T19:24:58.479Z,99213.9
2022-11-04T19:31:07.250Z,99220.9
2022-11-04T19:36:41.834Z,99222.8
2022-11-04T19:42:17.144Z,99226.6
2022-11-04T19:47:55.279Z,99231.5
2022-11-04T19:53:34.222Z,99226.4
2022-11-04T19:59:09.631Z,99236.3
2022-11-04T20:04:44.735Z,99236
2022-11-04T20:10:20.051Z,99245.9
2022-11-04T20:15:55.159Z,99256.4
2022-11-04T20:21:30.451Z,99261
2022-11-04T20:27:05.596Z,99266.2
2022-11-04T20:32:40.424Z,99275.4
2022-11-04T20:38:19.157Z,99271.3
2022-11-04T20:43:58.490Z,99274.1
2022-11-04T20:49:35.912Z,99275.3
2022-11-04T20:55:15.023Z,99283
2022-11-04T21:01:12.707Z,99295.6
2022-11-04T21:06:48.638Z,99303.3
2022-11-04T21:12:23.460Z,99306.9
2022-11-04T21:18:02.932Z,99308.5
2022-11-04T21:23:39.407Z,99309.9
2022-11-04T21:29:20.645Z,99314.2
2022-11-04T21:34:59.338Z,99311.1
2022-11-04T21:40:35.245Z,99314
2022-11-04T21:46:32.045Z,99312.2
2022-11-04T21:52:07.481Z,99309.5
2022-11-04T21:57:45.369Z,99308
2022-11-04T22:03:20.822Z,99306.5
2022-11-04T22:08:55.699Z,99304.5
2022-11-04T22:14:33.415Z,99299.6
2022-11-04T22:20:09.263Z,99299.6
2022-11-04T22:25:50.838Z,99307.7
2022-11-04T22:31:25.786Z,99300.5
2022-11-04T22:37:01.193Z,99300.2
2022-11-04T22:42:37.134Z,99299.3
2022-11-04T22:48:33.973Z,99296.7
2022-11-04T22:54:09.836Z,99287.2
2022-11-04T22:59:45.011Z,99286.5
2022-11-04T23:05:19.798Z,99279.9
2022-11-04T23:10:55.009Z,99281
2022-11-04T23:16:29.642Z,99273.5
2022-11-04T23:22:04.852Z,99267.5
2022-11-04T23:27:40.269Z,99272.2
2022-11-04T23:33:16.451Z,99271.1
2022-11-04T23:38:51.403Z,99261.6
2022-11-04T23:44:29.469Z,99256.6
2022-11-04T23:50:04.338Z,99254.4
2022-11-04T23:55:39.695Z,99260.6
